createdAt,value
2019-04-25T00:01:17.450Z,99902.00
2019-04-25T00:03:46.816Z,99899.59
2019-04-25T00:06:16.036Z,99899.31
2019-04-25T00:08:45.242Z,99909.91
2019-04-25T00:11:14.516Z,99911.59
2019-04-25T00:13:44.428Z,99919.27
2019-04-25T00:16:14.775Z,99925.35
2019-04-25T00:18:44.267Z,99920.75
2019-04-25T00:21:21.952Z,99921.98
2019-04-25T00:23:55.826Z,99931.72
2019-04-25T00:26:46.789Z,99928.03
2019-04-25T00:29:16.172Z,99932.11
2019-04-25T00:31:45.820Z,99935.58
2019-04-25T00:34:14.827Z,99930.93
2019-04-25T00:36:45.565Z,99939.02
2019-04-25T00:39:14.741Z,99931.18
2019-04-25T00:41:45.504Z,99915.45
2019-04-25T00:44:14.790Z,99902.09
2019-04-25T00:46:47.811Z,99894.92
2019-04-25T00:49:14.579Z,99891.95
2019-04-25T00:51:44.509Z,99891.22
2019-04-25T00:54:13.893Z,99891.34
2019-04-25T00:56:45.801Z,99886.81
2019-04-25T00:59:19.657Z,99880.63
2019-04-25T01:01:56.656Z,99874.64
2019-04-25T01:04:26.539Z,99868.56
2019-04-25T01:06:55.582Z,99870.00
2019-04-25T01:09:26.082Z,99872.59
2019-04-25T01:11:55.203Z,99873.63
2019-04-25T01:14:24.219Z,99888.05
2019-04-25T01:16:54.903Z,99887.20
2019-04-25T01:19:24.043Z,99877.63
2019-04-25T01:21:54.808Z,99873.84
2019-04-25T01:24:26.765Z,99877.83
2019-04-25T01:26:55.916Z,99874.36
2019-04-25T01:29:25.061Z,99871.25
2019-04-25T01:31:55.276Z,99867.09
2019-04-25T01:34:35.220Z,99866.46
2019-04-25T01:37:17.401Z,99869.72
2019-04-25T01:40:04.929Z,99872.19
2019-04-25T01:42:46.247Z,99869.04
2019-04-25T01:45:15.446Z,99863.19
2019-04-25T01:47:45.542Z,99854.41
2019-04-25T01:50:14.664Z,99839.54
2019-04-25T01:52:43.656Z,99823.41
2019-04-25T01:55:13.761Z,99832.11
2019-04-25T01:57:45.079Z,99846.08
2019-04-25T02:00:16.317Z,99862.53
2019-04-25T02:02:45.712Z,99858.53
2019-04-25T02:05:14.753Z,99857.44
2019-04-25T02:07:44.424Z,99851.27
2019-04-25T02:10:13.938Z,99851.31
2019-04-25T02:12:48.169Z,99858.02
2019-04-25T02:15:19.642Z,99855.55
2019-04-25T02:17:48.659Z,99858.27
2019-04-25T02:20:17.776Z,99839.92
2019-04-25T02:22:46.773Z,99850.34
2019-04-25T02:25:15.783Z,99852.23
2019-04-25T02:27:45.171Z,99855.32
2019-04-25T02:30:15.718Z,99853.65
2019-04-25T02:32:45.205Z,99856.58
2019-04-25T02:35:14.830Z,99855.09
2019-04-25T02:37:45.122Z,99855.17
2019-04-25T02:40:14.606Z,99862.40
2019-04-25T02:42:44.342Z,99856.41
2019-04-25T02:45:30.991Z,99857.28
2019-04-25T02:48:14.200Z,99852.94
2019-04-25T02:50:56.880Z,99850.23
2019-04-25T02:53:34.483Z,99851.53
2019-04-25T02:56:12.355Z,99851.30
2019-04-25T02:58:35.571Z,99856.03
2019-04-25T03:01:16.215Z,99851.77
2019-04-25T03:03:36.730Z,99859.58
2019-04-25T03:06:09.359Z,99861.69
2019-04-25T03:08:37.893Z,99862.64
2019-04-25T03:11:09.141Z,99855.80
2019-04-25T03:13:39.177Z,99854.70
2019-04-25T03:16:10.836Z,99857.30
2019-04-25T03:18:47.641Z,99852.20
2019-04-25T03:21:24.968Z,99848.17
2019-04-25T03:23:55.002Z,99853.02
2019-04-25T03:26:24.051Z,99851.59
2019-04-25T03:28:53.732Z,99858.09
2019-04-25T03:31:26.727Z,99849.14
2019-04-25T03:33:55.800Z,99849.81
2019-04-25T03:36:24.304Z,99848.52
2019-04-25T03:38:54.163Z,99856.33
2019-04-25T03:41:24.523Z,99857.38
2019-04-25T03:43:54.166Z,99850.81
2019-04-25T03:46:23.444Z,99859.09
2019-04-25T03:48:53.995Z,99851.94
2019-04-25T03:51:23.982Z,99858.31
2019-04-25T03:53:53.621Z,99863.91
2019-04-25T03:56:22.872Z,99858.91
2019-04-25T03:58:52.175Z,99850.08
2019-04-25T04:01:21.567Z,99850.38
2019-04-25T04:03:50.584Z,99849.51
2019-04-25T04:06:19.628Z,99846.92
2019-04-25T04:08:48.975Z,99850.05
2019-04-25T04:11:18.355Z,99845.09
2019-04-25T04:13:47.371Z,99848.32
2019-04-25T04:16:19.637Z,99847.20
2019-04-25T04:18:50.385Z,99846.69
2019-04-25T04:21:44.661Z,99845.34
2019-04-25T04:24:17.851Z,99851.55
2019-04-25T04:27:09.027Z,99845.55
2019-04-25T04:29:38.510Z,99848.64
2019-04-25T04:32:08.574Z,99838.33
2019-04-25T04:34:37.731Z,99838.13
2019-04-25T04:37:07.560Z,99846.69
2019-04-25T04:39:36.735Z,99837.28
2019-04-25T04:42:05.738Z,99842.66
2019-04-25T04:44:35.095Z,99839.36
2019-04-25T04:47:04.511Z,99843.17
2019-04-25T04:49:34.229Z,99843.08
2019-04-25T04:52:04.542Z,99859.80
2019-04-25T04:54:34.619Z,99849.88
2019-04-25T04:57:18.154Z,99855.25
2019-04-25T04:59:36.682Z,99852.53
2019-04-25T05:02:27.476Z,99851.30
2019-04-25T05:05:14.802Z,99859.44
2019-04-25T05:07:54.245Z,99863.59
2019-04-25T05:10:23.729Z,99868.42
2019-04-25T05:12:53.829Z,99865.05
2019-04-25T05:15:24.588Z,99863.20
2019-04-25T05:17:54.266Z,99860.17
2019-04-25T05:20:24.188Z,99856.64
2019-04-25T05:22:54.971Z,99863.09
2019-04-25T05:25:24.802Z,99873.24
2019-04-25T05:28:00.685Z,99876.42
2019-04-25T05:30:31.007Z,99875.77
2019-04-25T05:33:00.447Z,99878.45
2019-04-25T05:35:29.440Z,99881.36
2019-04-25T05:37:58.541Z,99880.88
2019-04-25T05:40:27.539Z,99882.84
2019-04-25T05:43:09.572Z,99885.35
2019-04-25T05:45:38.591Z,99896.58
2019-04-25T05:48:07.691Z,99902.28
2019-04-25T05:50:36.986Z,99914.62
2019-04-25T05:53:06.027Z,99915.86
2019-04-25T05:55:35.407Z,99919.17
2019-04-25T05:58:04.811Z,99914.42
2019-04-25T06:00:34.305Z,99923.52
2019-04-25T06:03:03.887Z,99934.49
2019-04-25T06:05:33.518Z,99940.06
2019-04-25T06:08:04.299Z,99947.42
2019-04-25T06:10:53.830Z,99944.67
2019-04-25T06:13:36.973Z,99943.89
2019-04-25T06:16:18.561Z,99945.29
2019-04-25T06:19:13.631Z,99931.81
2019-04-25T06:21:34.539Z,99912.20
2019-04-25T06:24:25.968Z,99909.19
2019-04-25T06:27:20.543Z,99914.19
2019-04-25T06:29:59.015Z,99930.95
2019-04-25T06:32:24.993Z,99930.40
2019-04-25T06:34:54.773Z,99929.16
2019-04-25T06:37:24.942Z,99929.05
2019-04-25T06:39:54.571Z,99939.89
2019-04-25T06:42:24.824Z,99949.78
2019-04-25T06:45:06.607Z,99946.14
2019-04-25T06:47:44.244Z,99955.48
2019-04-25T06:50:15.708Z,99951.61
2019-04-25T06:52:44.717Z,99951.94
2019-04-25T06:55:14.123Z,99967.33
2019-04-25T06:57:44.164Z,99971.26
2019-04-25T07:00:15.799Z,99970.64
2019-04-25T07:02:45.175Z,99962.81
2019-04-25T07:05:25.855Z,99951.88
2019-04-25T07:07:45.566Z,99954.80
2019-04-25T07:10:15.459Z,99955.87
2019-04-25T07:12:44.494Z,99959.38
2019-04-25T07:15:13.882Z,99956.91
2019-04-25T07:17:43.595Z,99946.81
2019-04-25T07:20:14.043Z,99940.14
2019-04-25T07:22:43.792Z,99934.15
2019-04-25T07:25:16.039Z,99923.63
2019-04-25T07:28:23.829Z,99928.20
2019-04-25T07:31:13.731Z,99918.16
2019-04-25T07:34:04.653Z,99909.36
2019-04-25T07:36:35.103Z,99920.42
2019-04-25T07:39:10.401Z,99920.42
2019-04-25T07:41:38.701Z,99920.83
2019-04-25T07:44:07.720Z,99922.34
2019-04-25T07:46:39.521Z,99919.48
2019-04-25T07:49:08.148Z,99918.48
2019-04-25T07:51:37.145Z,99927.56
2019-04-25T07:54:07.551Z,99921.75
2019-04-25T07:56:36.557Z,99932.78
2019-04-25T07:59:07.098Z,99932.78
2019-04-25T08:01:37.905Z,99935.69
2019-04-25T08:04:07.309Z,99941.44
2019-04-25T08:06:36.325Z,99935.83
2019-04-25T08:09:08.312Z,99947.91
2019-04-25T08:11:38.213Z,99947.91
2019-04-25T08:14:18.441Z,99953.75
2019-04-25T08:16:49.981Z,99966.27
2019-04-25T08:19:18.986Z,99966.27
2019-04-25T08:21:48.852Z,99938.20
2019-04-25T08:24:17.880Z,99938.20
2019-04-25T08:26:46.879Z,99944.38
2019-04-25T08:29:15.887Z,99935.19
2019-04-25T08:31:45.404Z,99951.05
2019-04-25T08:34:15.090Z,99944.84
2019-04-25T08:36:45.732Z,99938.42
2019-04-25T08:39:15.179Z,99949.72
2019-04-25T08:41:45.652Z,99949.67
2019-04-25T08:44:15.062Z,99954.53
2019-04-25T08:46:48.421Z,99964.73
2019-04-25T08:49:36.193Z,99954.76
2019-04-25T08:52:05.469Z,99957.55
2019-04-25T08:54:57.654Z,99952.17
2019-04-25T08:57:45.724Z,99958.32
2019-04-25T09:00:35.710Z,99961.67
2019-04-25T09:03:07.807Z,99961.27
2019-04-25T09:05:40.604Z,99956.95
2019-04-25T09:08:09.574Z,99959.88
2019-04-25T09:10:40.075Z,99959.19
2019-04-25T09:13:09.800Z,99963.55
2019-04-25T09:15:39.486Z,99963.94
2019-04-25T09:18:08.877Z,99959.23
2019-04-25T09:20:39.611Z,99951.55
2019-04-25T09:23:08.987Z,99941.89
2019-04-25T09:25:38.653Z,99953.03
2019-04-25T09:28:07.666Z,99952.09
2019-04-25T09:30:37.110Z,99952.34
2019-04-25T09:33:06.528Z,99951.98
2019-04-25T09:35:36.226Z,99950.33
2019-04-25T09:38:05.659Z,99944.73
2019-04-25T09:40:35.985Z,99963.66
2019-04-25T09:43:05.091Z,99962.15
2019-04-25T09:45:46.147Z,99967.08
2019-04-25T09:48:35.399Z,99962.69
2019-04-25T09:51:20.629Z,99955.48
2019-04-25T09:53:54.291Z,99955.39
2019-04-25T09:56:28.823Z,99962.70
2019-04-25T09:59:09.994Z,99961.63
2019-04-25T10:01:40.293Z,99954.48
2019-04-25T10:04:09.996Z,99957.89
2019-04-25T10:06:38.994Z,99973.03
2019-04-25T10:09:09.194Z,99972.44
2019-04-25T10:11:38.407Z,99985.63
2019-04-25T10:14:28.363Z,99996.23
2019-04-25T10:16:57.699Z,99990.30
2019-04-25T10:19:26.727Z,99996.15
2019-04-25T10:21:55.853Z,100008.92
2019-04-25T10:24:24.852Z,100005.35
2019-04-25T10:26:54.789Z,100005.97
2019-04-25T10:29:24.251Z,100013.98
2019-04-25T10:31:55.465Z,100006.70
2019-04-25T10:34:24.266Z,99997.66
2019-04-25T10:36:53.949Z,99994.81
2019-04-25T10:39:23.223Z,99994.66
2019-04-25T10:41:54.050Z,99995.95
2019-04-25T10:44:24.547Z,100011.31
2019-04-25T10:46:54.624Z,100002.24
2019-04-25T10:49:24.057Z,99988.37
2019-04-25T10:51:54.166Z,99996.16
2019-04-25T10:54:23.765Z,99985.45
2019-04-25T10:56:52.972Z,99983.55
2019-04-25T10:59:23.577Z,99985.48
2019-04-25T11:01:53.898Z,99982.86
2019-04-25T11:04:29.601Z,99985.96
2019-04-25T11:06:58.603Z,99979.84
2019-04-25T11:09:27.711Z,99987.44
2019-04-25T11:11:56.758Z,99991.56
2019-04-25T11:14:26.386Z,99995.55
2019-04-25T11:16:56.458Z,100000.31
2019-04-25T11:19:25.583Z,100006.97
2019-04-25T11:21:54.578Z,100011.52
2019-04-25T11:24:23.832Z,100013.22
2019-04-25T11:26:55.100Z,100016.08
2019-04-25T11:29:24.455Z,100023.11
2019-04-25T11:31:53.567Z,100030.17
2019-04-25T11:34:23.131Z,100039.97
2019-04-25T11:36:52.165Z,100034.66
2019-04-25T11:39:39.029Z,100033.72
2019-04-25T11:42:16.018Z,100048.42
2019-04-25T11:44:45.726Z,100045.66
2019-04-25T11:47:15.532Z,100041.56
2019-04-25T11:49:46.350Z,100058.22
2019-04-25T11:52:26.856Z,100063.11
2019-04-25T11:54:46.858Z,100063.36
2019-04-25T11:57:16.614Z,100061.85
2019-04-25T11:59:48.883Z,100065.34
2019-04-25T12:02:16.941Z,100065.56
2019-04-25T12:04:46.858Z,100077.13
2019-04-25T12:07:17.189Z,100075.97
2019-04-25T12:09:46.874Z,100071.35
2019-04-25T12:12:17.196Z,100073.69
2019-04-25T12:14:47.561Z,100076.41
2019-04-25T12:17:17.087Z,100074.55
2019-04-25T12:19:47.055Z,100077.99
2019-04-25T12:22:16.567Z,100089.27
2019-04-25T12:24:46.697Z,100088.59
2019-04-25T12:27:15.774Z,100095.91
2019-04-25T12:29:45.850Z,100104.79
2019-04-25T12:32:15.356Z,100132.04
2019-04-25T12:34:45.772Z,100120.91
2019-04-25T12:37:14.867Z,100133.08
2019-04-25T12:39:44.652Z,100140.45
2019-04-25T12:42:14.445Z,100142.65
2019-04-25T12:44:54.788Z,100150.61
2019-04-25T12:47:25.165Z,100152.22
2019-04-25T12:49:55.134Z,100155.37
2019-04-25T12:52:25.396Z,100156.93
2019-04-25T12:54:57.214Z,100162.46
2019-04-25T12:57:26.527Z,100162.75
2019-04-25T12:59:55.576Z,100174.19
2019-04-25T13:02:24.595Z,100181.48
2019-04-25T13:04:55.205Z,100180.55
2019-04-25T13:07:24.376Z,100168.28
2019-04-25T13:09:53.767Z,100173.82
2019-04-25T13:12:23.419Z,100174.72
2019-04-25T13:14:52.603Z,100182.47
2019-04-25T13:17:21.626Z,100175.00
2019-04-25T13:19:50.721Z,100185.91
2019-04-25T13:22:19.919Z,100185.81
2019-04-25T13:24:48.973Z,100186.26
2019-04-25T13:27:39.968Z,100191.81
2019-04-25T13:30:21.985Z,100199.70
2019-04-25T13:33:08.963Z,100212.85
2019-04-25T13:35:44.774Z,100220.20
2019-04-25T13:38:13.799Z,100213.50
2019-04-25T13:40:42.854Z,100235.23
2019-04-25T13:43:12.525Z,100223.14
2019-04-25T13:45:41.581Z,100224.38
2019-04-25T13:48:11.354Z,100221.99
2019-04-25T13:50:40.371Z,100215.67
2019-04-25T13:53:09.559Z,100219.80
2019-04-25T13:55:39.984Z,100221.02
2019-04-25T13:58:11.181Z,100233.36
2019-04-25T14:00:40.186Z,100228.52
2019-04-25T14:03:09.197Z,100220.45
2019-04-25T14:05:38.521Z,100212.45
2019-04-25T14:08:07.587Z,100197.21
2019-04-25T14:10:36.647Z,100187.90
2019-04-25T14:13:06.322Z,100189.16
2019-04-25T14:15:37.241Z,100211.22
2019-04-25T14:18:20.264Z,100206.67
2019-04-25T14:20:54.166Z,100211.50
2019-04-25T14:23:24.767Z,100221.47
2019-04-25T14:25:54.580Z,100227.31
2019-04-25T14:28:25.523Z,100225.52
2019-04-25T14:30:54.598Z,100220.85
2019-04-25T14:33:25.400Z,100219.09
2019-04-25T14:35:54.881Z,100218.36
2019-04-25T14:38:25.337Z,100198.79
2019-04-25T14:40:55.056Z,100192.05
2019-04-25T14:43:25.038Z,100188.59
2019-04-25T14:45:56.181Z,100205.91
2019-04-25T14:48:25.173Z,100206.67
2019-04-25T14:50:54.866Z,100227.48
2019-04-25T14:53:24.293Z,100239.92
2019-04-25T14:56:07.776Z,100233.18
2019-04-25T14:58:38.164Z,100232.88
2019-04-25T15:01:07.611Z,100235.65
2019-04-25T15:03:37.015Z,100229.52
2019-04-25T15:06:06.154Z,100237.81
2019-04-25T15:08:35.565Z,100239.11
2019-04-25T15:11:05.241Z,100251.70
2019-04-25T15:13:35.231Z,100258.33
2019-04-25T15:16:05.056Z,100255.55
2019-04-25T15:18:45.825Z,100246.84
2019-04-25T15:21:05.717Z,100257.54
2019-04-25T15:23:35.825Z,100260.44
2019-04-25T15:26:04.892Z,100266.98
2019-04-25T15:28:33.918Z,100283.77
2019-04-25T15:31:02.997Z,100278.24
2019-04-25T15:33:33.127Z,100303.69
2019-04-25T15:36:09.735Z,100311.75
2019-04-25T15:39:15.965Z,100306.20
2019-04-25T15:41:59.778Z,100307.43
2019-04-25T15:44:50.733Z,100324.13
2019-04-25T15:47:23.257Z,100340.45
2019-04-25T15:49:52.283Z,100344.66
2019-04-25T15:52:21.341Z,100347.34
2019-04-25T15:54:50.341Z,100347.67
2019-04-25T15:57:19.391Z,100358.92
2019-04-25T15:59:48.383Z,100361.66
2019-04-25T16:02:17.839Z,100361.07
2019-04-25T16:04:46.863Z,100362.58
2019-04-25T16:07:16.194Z,100359.95
2019-04-25T16:09:45.191Z,100353.03
2019-04-25T16:12:14.692Z,100345.23
2019-04-25T16:14:44.127Z,100362.37
2019-04-25T16:17:13.197Z,100365.78
2019-04-25T16:19:42.205Z,100356.53
2019-04-25T16:22:11.609Z,100366.28
2019-04-25T16:24:41.032Z,100361.17
2019-04-25T16:27:11.889Z,100347.60
2019-04-25T16:29:40.919Z,100342.84
2019-04-25T16:32:20.342Z,100352.27
2019-04-25T16:34:44.292Z,100360.33
2019-04-25T16:37:13.305Z,100357.38
2019-04-25T16:39:43.211Z,100350.09
2019-04-25T16:42:12.706Z,100343.47
2019-04-25T16:44:42.033Z,100334.97
2019-04-25T16:47:11.418Z,100327.22
2019-04-25T16:49:40.451Z,100344.85
2019-04-25T16:52:10.795Z,100363.98
2019-04-25T16:54:40.471Z,100373.21
2019-04-25T16:57:09.755Z,100365.55
2019-04-25T16:59:38.951Z,100354.55
2019-04-25T17:02:08.214Z,100357.93
2019-04-25T17:04:37.606Z,100354.38
2019-04-25T17:07:07.059Z,100353.77
2019-04-25T17:09:36.523Z,100345.69
2019-04-25T17:12:08.014Z,100359.73
2019-04-25T17:14:51.037Z,100354.93
2019-04-25T17:17:38.067Z,100371.55
2019-04-25T17:20:20.023Z,100371.55
2019-04-25T17:22:49.633Z,100381.12
2019-04-25T17:25:19.311Z,100381.41
2019-04-25T17:27:48.328Z,100376.30
2019-04-25T17:30:18.303Z,100371.12
2019-04-25T17:33:10.281Z,100367.57
2019-04-25T17:35:57.155Z,100385.23
2019-04-25T17:38:35.976Z,100385.23
2019-04-25T17:41:05.255Z,100397.30
2019-04-25T17:43:34.509Z,100397.30
2019-04-25T17:46:05.927Z,100422.03
2019-04-25T17:48:34.948Z,100422.03
2019-04-25T17:51:04.334Z,100402.25
2019-04-25T17:53:34.347Z,100402.25
2019-04-25T17:56:03.735Z,100416.57
2019-04-25T17:58:33.321Z,100401.91
2019-04-25T18:01:03.644Z,100403.86
2019-04-25T18:03:33.609Z,100398.16
2019-04-25T18:06:02.809Z,100398.16
2019-04-25T18:08:31.863Z,100394.80
2019-04-25T18:11:00.886Z,100418.11
2019-04-25T18:13:30.263Z,100418.11
2019-04-25T18:16:06.207Z,100417.94
2019-04-25T18:18:45.628Z,100416.97
2019-04-25T18:21:14.716Z,100414.17
2019-04-25T18:24:13.064Z,100410.86
2019-04-25T18:26:47.578Z,100410.86
2019-04-25T18:29:17.262Z,100431.50
2019-04-25T18:31:46.382Z,100442.29
2019-04-25T18:34:28.442Z,100442.29
2019-04-25T18:37:05.728Z,100442.09
2019-04-25T18:39:41.949Z,100448.83
2019-04-25T18:42:37.855Z,100442.52
2019-04-25T18:45:07.845Z,100452.07
2019-04-25T18:47:37.010Z,100459.48
2019-04-25T18:50:07.026Z,100463.94
2019-04-25T18:53:00.993Z,100457.16
2019-04-25T18:55:37.583Z,100469.39
2019-04-25T18:58:12.792Z,100485.48
2019-04-25T19:00:52.792Z,100488.47
2019-04-25T19:03:38.162Z,100483.04
2019-04-25T19:06:10.436Z,100481.93
2019-04-25T19:08:39.634Z,100482.03
2019-04-25T19:11:08.785Z,100488.28
2019-04-25T19:13:38.797Z,100475.51
2019-04-25T19:16:08.880Z,100476.52
2019-04-25T19:18:38.829Z,100475.45
2019-04-25T19:21:09.314Z,100467.30
2019-04-25T19:23:39.379Z,100474.80
2019-04-25T19:26:09.132Z,100474.91
2019-04-25T19:28:38.488Z,100475.69
2019-04-25T19:31:08.618Z,100464.55
2019-04-25T19:33:37.863Z,100471.25
2019-04-25T19:36:06.899Z,100480.54
2019-04-25T19:38:36.271Z,100480.27
2019-04-25T19:41:25.313Z,100479.01
2019-04-25T19:44:04.535Z,100474.03
2019-04-25T19:46:42.846Z,100455.95
2019-04-25T19:49:12.304Z,100456.82
2019-04-25T19:51:41.832Z,100481.02
2019-04-25T19:54:10.879Z,100486.16
2019-04-25T19:56:39.950Z,100486.23
2019-04-25T19:59:09.498Z,100486.02
2019-04-25T20:01:38.514Z,100496.45
2019-04-25T20:04:13.929Z,100495.48
2019-04-25T20:07:02.321Z,100497.23
2019-04-25T20:09:51.142Z,100511.27
2019-04-25T20:12:21.253Z,100504.58
2019-04-25T20:14:51.292Z,100495.09
2019-04-25T20:17:20.400Z,100491.24
2019-04-25T20:19:49.760Z,100487.75
2019-04-25T20:22:18.927Z,100492.25
2019-04-25T20:24:48.348Z,100484.73
2019-04-25T20:27:17.470Z,100482.88
2019-04-25T20:29:46.934Z,100491.77
2019-04-25T20:32:15.961Z,100501.98
2019-04-25T20:34:46.973Z,100502.70
2019-04-25T20:37:16.170Z,100511.58
2019-04-25T20:39:46.025Z,100516.08
2019-04-25T20:42:15.059Z,100529.98
2019-04-25T20:44:44.098Z,100519.66
2019-04-25T20:47:13.121Z,100516.14
2019-04-25T20:49:42.137Z,100513.30
2019-04-25T20:52:11.172Z,100514.78
2019-04-25T20:54:40.488Z,100524.49
2019-04-25T20:57:09.766Z,100523.84
2019-04-25T20:59:39.094Z,100529.22
2019-04-25T21:02:08.881Z,100528.55
2019-04-25T21:04:42.210Z,100538.91
2019-04-25T21:07:11.634Z,100540.41
2019-04-25T21:09:40.743Z,100541.55
2019-04-25T21:12:10.553Z,100543.05
2019-04-25T21:15:03.728Z,100547.08
2019-04-25T21:17:54.926Z,100549.05
2019-04-25T21:20:23.958Z,100556.75
2019-04-25T21:22:53.824Z,100547.36
2019-04-25T21:25:23.172Z,100557.39
2019-04-25T21:27:52.604Z,100559.20
2019-04-25T21:30:21.664Z,100548.31
2019-04-25T21:32:53.399Z,100556.86
2019-04-25T21:35:25.652Z,100553.46
2019-04-25T21:37:55.524Z,100559.09
2019-04-25T21:40:37.491Z,100568.11
2019-04-25T21:43:10.818Z,100563.22
2019-04-25T21:45:40.542Z,100572.92
2019-04-25T21:48:10.235Z,100566.41
2019-04-25T21:50:39.881Z,100563.97
2019-04-25T21:53:09.591Z,100567.14
2019-04-25T21:55:38.922Z,100567.84
2019-04-25T21:58:08.126Z,100574.38
2019-04-25T22:00:56.427Z,100573.58
2019-04-25T22:03:26.146Z,100562.91
2019-04-25T22:05:56.726Z,100571.92
2019-04-25T22:08:26.366Z,100572.88
2019-04-25T22:10:57.235Z,100575.83
2019-04-25T22:13:26.320Z,100579.59
2019-04-25T22:15:57.172Z,100591.29
2019-04-25T22:18:26.942Z,100595.30
2019-04-25T22:20:56.895Z,100598.14
2019-04-25T22:23:25.963Z,100597.63
2019-04-25T22:25:56.287Z,100596.96
2019-04-25T22:28:25.732Z,100603.00
2019-04-25T22:30:59.098Z,100613.91
2019-04-25T22:33:47.668Z,100616.08
2019-04-25T22:36:19.296Z,100617.89
2019-04-25T22:39:07.840Z,100618.73
2019-04-25T22:41:38.457Z,100617.03
2019-04-25T22:44:08.871Z,100611.52
2019-04-25T22:46:38.198Z,100608.02
2019-04-25T22:49:07.682Z,100595.30
2019-04-25T22:51:37.077Z,100590.42
2019-04-25T22:54:07.399Z,100576.23
2019-04-25T22:56:36.672Z,100568.22
2019-04-25T22:59:06.868Z,100575.56
2019-04-25T23:01:58.118Z,100587.61
2019-04-25T23:04:44.912Z,100593.66
2019-04-25T23:07:14.801Z,100607.89
2019-04-25T23:09:44.648Z,100624.61
2019-04-25T23:12:13.852Z,100628.97
2019-04-25T23:14:43.422Z,100634.33
2019-04-25T23:17:13.381Z,100641.34
2019-04-25T23:19:42.944Z,100640.83
2019-04-25T23:22:11.952Z,100641.81
2019-04-25T23:24:46.107Z,100647.52
2019-04-25T23:27:31.540Z,100643.50
2019-04-25T23:30:00.563Z,100645.50
2019-04-25T23:32:29.846Z,100641.16
2019-04-25T23:34:58.858Z,100641.48
2019-04-25T23:37:27.937Z,100650.69
2019-04-25T23:39:57.055Z,100658.20
2019-04-25T23:42:26.623Z,100654.17
2019-04-25T23:44:56.928Z,100651.48
2019-04-25T23:47:26.438Z,100654.81
2019-04-25T23:49:55.690Z,100651.95
2019-04-25T23:52:25.257Z,100646.95
2019-04-25T23:54:54.418Z,100654.58
2019-04-25T23:57:23.739Z,100657.11
2019-04-25T23:59:53.076Z,100670.36
